sensor_id;sensor_type;location;lat;lon;timestamp;temperature;humidity
46890;DHT22;32625;51.080;16.970;2023-05-07T00:02:19;9.10;99.90
46890;DHT22;32625;51.080;16.970;2023-05-07T00:04:46;9.00;99.90
46890;DHT22;32625;51.080;16.970;2023-05-07T00:07:14;9.00;99.90
46890;DHT22;32625;51.080;16.970;2023-05-07T00:09:42;9.00;99.90
46890;DHT22;32625;51.080;16.970;2023-05-07T00:12:09;9.10;99.90
46890;DHT22;32625;51.080;16.970;2023-05-07T00:14:39;9.10;99.90
46890;DHT22;32625;51.080;16.970;2023-05-07T00:17:07;9.10;99.90
46890;DHT22;32625;51.080;16.970;2023-05-07T00:19:34;9.10;99.90
46890;DHT22;32625;51.080;16.970;2023-05-07T00:22:01;9.10;99.90
46890;DHT22;32625;51.080;16.970;2023-05-07T00:24:28;9.10;99.90
46890;DHT22;32625;51.080;16.970;2023-05-07T00:26:55;9.10;99.90
46890;DHT22;32625;51.080;16.970;2023-05-07T00:29:26;9.00;99.90
46890;DHT22;32625;51.080;16.970;2023-05-07T00:31:53;8.90;99.90
46890;DHT22;32625;51.080;16.970;2023-05-07T00:34:21;9.00;99.90
46890;DHT22;32625;51.080;16.970;2023-05-07T00:36:49;9.00;99.90
46890;DHT22;32625;51.080;16.970;2023-05-07T00:39:16;9.00;99.90
46890;DHT22;32625;51.080;16.970;2023-05-07T00:41:43;9.00;99.90
46890;DHT22;32625;51.080;16.970;2023-05-07T00:44:11;8.90;99.90
46890;DHT22;32625;51.080;16.970;2023-05-07T00:46:38;8.90;99.90
46890;DHT22;32625;51.080;16.970;2023-05-07T00:49:05;9.00;99.90
46890;DHT22;32625;51.080;16.970;2023-05-07T00:51:33;9.00;99.90
46890;DHT22;32625;51.080;16.970;2023-05-07T00:54:02;9.00;99.90
46890;DHT22;32625;51.080;16.970;2023-05-07T00:56:30;9.00;99.90
46890;DHT22;32625;51.080;16.970;2023-05-07T00:58:58;9.00;99.90
46890;DHT22;32625;51.080;16.970;2023-05-07T01:01:26;8.90;99.90
46890;DHT22;32625;51.080;16.970;2023-05-07T01:03:53;8.90;99.90
46890;DHT22;32625;51.080;16.970;2023-05-07T01:06:23;8.90;99.90
46890;DHT22;32625;51.080;16.970;2023-05-07T01:08:51;9.00;99.90
46890;DHT22;32625;51.080;16.970;2023-05-07T01:11:19;9.00;99.90
46890;DHT22;32625;51.080;16.970;2023-05-07T01:13:49;9.00;99.90
46890;DHT22;32625;51.080;16.970;2023-05-07T01:16:17;9.00;99.90
46890;DHT22;32625;51.080;16.970;2023-05-07T01:18:44;9.00;99.90
46890;DHT22;32625;51.080;16.970;2023-05-07T01:21:15;8.90;99.90
46890;DHT22;32625;51.080;16.970;2023-05-07T01:23:44;8.90;99.90
46890;DHT22;32625;51.080;16.970;2023-05-07T01:26:12;8.90;99.90
46890;DHT22;32625;51.080;16.970;2023-05-07T01:28:42;8.90;99.90
46890;DHT22;32625;51.080;16.970;2023-05-07T01:31:09;8.90;99.90
46890;DHT22;32625;51.080;16.970;2023-05-07T01:33:38;9.00;99.90
46890;DHT22;32625;51.080;16.970;2023-05-07T01:36:07;8.90;99.90
46890;DHT22;32625;51.080;16.970;2023-05-07T01:38:37;8.90;99.90
46890;DHT22;32625;51.080;16.970;2023-05-07T01:41:05;8.90;99.90
46890;DHT22;32625;51.080;16.970;2023-05-07T01:43:33;8.90;99.90
46890;DHT22;32625;51.080;16.970;2023-05-07T01:46:01;8.90;99.90
46890;DHT22;32625;51.080;16.970;2023-05-07T01:48:29;8.90;99.90
46890;DHT22;32625;51.080;16.970;2023-05-07T01:50:58;8.90;99.90
46890;DHT22;32625;51.080;16.970;2023-05-07T01:53:27;8.90;99.90
46890;DHT22;32625;51.080;16.970;2023-05-07T01:55:55;8.90;99.90
46890;DHT22;32625;51.080;16.970;2023-05-07T01:58:24;8.90;99.90
46890;DHT22;32625;51.080;16.970;2023-05-07T02:00:51;8.90;99.90
46890;DHT22;32625;51.080;16.970;2023-05-07T02:03:18;8.90;99.90
46890;DHT22;32625;51.080;16.970;2023-05-07T02:05:56;8.90;99.90
46890;DHT22;32625;51.080;16.970;2023-05-07T02:08:33;8.90;99.90
46890;DHT22;32625;51.080;16.970;2023-05-07T02:11:00;8.90;99.90
46890;DHT22;32625;51.080;16.970;2023-05-07T02:13:31;8.90;99.90
46890;DHT22;32625;51.080;16.970;2023-05-07T02:15:58;8.90;99.90
46890;DHT22;32625;51.080;16.970;2023-05-07T02:18:27;8.80;99.90
46890;DHT22;32625;51.080;16.970;2023-05-07T02:20:54;8.90;99.90
46890;DHT22;32625;51.080;16.970;2023-05-07T02:23:21;8.90;99.90
46890;DHT22;32625;51.080;16.970;2023-05-07T02:25:49;8.80;99.90
46890;DHT22;32625;51.080;16.970;2023-05-07T02:28:16;8.80;99.90
46890;DHT22;32625;51.080;16.970;2023-05-07T02:30:57;8.90;99.90
46890;DHT22;32625;51.080;16.970;2023-05-07T02:33:29;8.90;99.90
46890;DHT22;32625;51.080;16.970;2023-05-07T02:36:04;8.80;99.90
46890;DHT22;32625;51.080;16.970;2023-05-07T02:38:33;8.80;99.90
46890;DHT22;32625;51.080;16.970;2023-05-07T02:41:00;8.70;99.90
46890;DHT22;32625;51.080;16.970;2023-05-07T02:43:28;8.70;99.90
46890;DHT22;32625;51.080;16.970;2023-05-07T02:46:21;8.80;99.90
46890;DHT22;32625;51.080;16.970;2023-05-07T02:48:57;8.70;99.90
46890;DHT22;32625;51.080;16.970;2023-05-07T02:51:25;8.80;99.90
46890;DHT22;32625;51.080;16.970;2023-05-07T02:53:56;8.80;99.90
46890;DHT22;32625;51.080;16.970;2023-05-07T02:56:26;8.80;99.90
46890;DHT22;32625;51.080;16.970;2023-05-07T02:58:53;8.80;99.90
46890;DHT22;32625;51.080;16.970;2023-05-07T03:01:23;8.70;99.90
46890;DHT22;32625;51.080;16.970;2023-05-07T03:03:58;8.80;99.90
46890;DHT22;32625;51.080;16.970;2023-05-07T03:06:25;8.70;99.90
46890;DHT22;32625;51.080;16.970;2023-05-07T03:08:53;8.70;99.90
46890;DHT22;32625;51.080;16.970;2023-05-07T03:11:20;8.70;99.90
46890;DHT22;32625;51.080;16.970;2023-05-07T03:13:47;8.60;99.90
46890;DHT22;32625;51.080;16.970;2023-05-07T03:16:18;8.70;99.90
46890;DHT22;32625;51.080;16.970;2023-05-07T03:18:45;8.60;99.90
46890;DHT22;32625;51.080;16.970;2023-05-07T03:21:12;8.70;99.90
46890;DHT22;32625;51.080;16.970;2023-05-07T03:23:39;8.70;99.90
46890;DHT22;32625;51.080;16.970;2023-05-07T03:26:07;8.70;99.90
46890;DHT22;32625;51.080;16.970;2023-05-07T03:28:37;8.70;99.90
46890;DHT22;32625;51.080;16.970;2023-05-07T03:31:08;8.70;99.90
46890;DHT22;32625;51.080;16.970;2023-05-07T03:33:35;8.70;99.90
46890;DHT22;32625;51.080;16.970;2023-05-07T03:36:02;8.70;99.90
46890;DHT22;32625;51.080;16.970;2023-05-07T03:38:29;8.70;99.90
46890;DHT22;32625;51.080;16.970;2023-05-07T03:40:57;8.70;99.90
46890;DHT22;32625;51.080;16.970;2023-05-07T03:43:25;8.60;99.90
46890;DHT22;32625;51.080;16.970;2023-05-07T03:46:00;8.60;99.90
46890;DHT22;32625;51.080;16.970;2023-05-07T03:48:28;8.60;99.90
46890;DHT22;32625;51.080;16.970;2023-05-07T03:50:58;8.60;99.90
46890;DHT22;32625;51.080;16.970;2023-05-07T03:53:30;8.60;99.90
46890;DHT22;32625;51.080;16.970;2023-05-07T03:55:57;8.60;99.90
46890;DHT22;32625;51.080;16.970;2023-05-07T03:58:24;8.60;99.90
46890;DHT22;32625;51.080;16.970;2023-05-07T04:00:55;8.70;99.90
46890;DHT22;32625;51.080;16.970;2023-05-07T04:03:26;8.60;99.90
46890;DHT22;32625;51.080;16.970;2023-05-07T04:05:57;8.60;99.90
46890;DHT22;32625;51.080;16.970;2023-05-07T04:08:24;8.60;99.90
46890;DHT22;32625;51.080;16.970;2023-05-07T04:10:55;8.60;99.90
46890;DHT22;32625;51.080;16.970;2023-05-07T04:13:24;8.70;99.90
46890;DHT22;32625;51.080;16.970;2023-05-07T04:15:53;8.70;99.90
46890;DHT22;32625;51.080;16.970;2023-05-07T04:18:20;8.70;99.90
46890;DHT22;32625;51.080;16.970;2023-05-07T04:20:49;8.70;99.90
46890;DHT22;32625;51.080;16.970;2023-05-07T04:23:16;8.70;99.90
46890;DHT22;32625;51.080;16.970;2023-05-07T04:25:44;8.70;99.90
46890;DHT22;32625;51.080;16.970;2023-05-07T04:28:31;8.60;99.90
46890;DHT22;32625;51.080;16.970;2023-05-07T04:30:58;8.70;99.90
46890;DHT22;32625;51.080;16.970;2023-05-07T04:33:25;8.70;99.90
46890;DHT22;32625;51.080;16.970;2023-05-07T04:35:55;8.60;99.90
46890;DHT22;32625;51.080;16.970;2023-05-07T04:38:22;8.60;99.90
46890;DHT22;32625;51.080;16.970;2023-05-07T04:40:52;8.60;99.90
46890;DHT22;32625;51.080;16.970;2023-05-07T04:43:23;8.60;99.90
46890;DHT22;32625;51.080;16.970;2023-05-07T04:45:51;8.60;99.90
46890;DHT22;32625;51.080;16.970;2023-05-07T04:48:21;8.60;99.90
46890;DHT22;32625;51.080;16.970;2023-05-07T04:50:51;8.60;99.90
46890;DHT22;32625;51.080;16.970;2023-05-07T04:53:19;8.70;99.90
46890;DHT22;32625;51.080;16.970;2023-05-07T04:55:48;8.60;99.90
46890;DHT22;32625;51.080;16.970;2023-05-07T04:58:16;8.60;99.90
46890;DHT22;32625;51.080;16.970;2023-05-07T05:00:46;8.60;99.90
46890;DHT22;32625;51.080;16.970;2023-05-07T05:03:13;8.70;99.90
46890;DHT22;32625;51.080;16.970;2023-05-07T05:05:41;8.60;99.90
46890;DHT22;32625;51.080;16.970;2023-05-07T05:08:08;8.60;99.90
46890;DHT22;32625;51.080;16.970;2023-05-07T05:10:40;8.70;99.90
46890;DHT22;32625;51.080;16.970;2023-05-07T05:13:09;8.80;99.90
46890;DHT22;32625;51.080;16.970;2023-05-07T05:15:40;8.90;99.90
46890;DHT22;32625;51.080;16.970;2023-05-07T05:18:08;8.90;99.90
46890;DHT22;32625;51.080;16.970;2023-05-07T05:20:35;8.90;99.90
46890;DHT22;32625;51.080;16.970;2023-05-07T05:23:03;9.00;99.90
46890;DHT22;32625;51.080;16.970;2023-05-07T05:25:30;8.90;99.90
46890;DHT22;32625;51.080;16.970;2023-05-07T05:27:58;8.80;99.90
46890;DHT22;32625;51.080;16.970;2023-05-07T05:30:25;8.90;99.90
46890;DHT22;32625;51.080;16.970;2023-05-07T05:32:53;8.90;99.90
46890;DHT22;32625;51.080;16.970;2023-05-07T05:35:20;8.90;99.90
46890;DHT22;32625;51.080;16.970;2023-05-07T05:37:48;8.90;99.90
46890;DHT22;32625;51.080;16.970;2023-05-07T05:40:17;8.90;99.90
46890;DHT22;32625;51.080;16.970;2023-05-07T05:42:44;9.00;99.90
46890;DHT22;32625;51.080;16.970;2023-05-07T05:45:13;9.00;99.90
46890;DHT22;32625;51.080;16.970;2023-05-07T05:47:41;9.00;99.90
46890;DHT22;32625;51.080;16.970;2023-05-07T05:50:09;9.00;99.90
46890;DHT22;32625;51.080;16.970;2023-05-07T05:52:37;9.00;99.90
46890;DHT22;32625;51.080;16.970;2023-05-07T05:55:04;9.00;99.90
46890;DHT22;32625;51.080;16.970;2023-05-07T05:57:34;9.00;99.90
46890;DHT22;32625;51.080;16.970;2023-05-07T06:00:02;9.00;99.90
46890;DHT22;32625;51.080;16.970;2023-05-07T06:02:32;9.00;99.90
46890;DHT22;32625;51.080;16.970;2023-05-07T06:04:59;9.00;99.90
46890;DHT22;32625;51.080;16.970;2023-05-07T06:07:27;9.10;99.90
46890;DHT22;32625;51.080;16.970;2023-05-07T06:09:54;9.20;99.90
46890;DHT22;32625;51.080;16.970;2023-05-07T06:12:22;9.30;99.90
46890;DHT22;32625;51.080;16.970;2023-05-07T06:14:49;9.30;99.90
46890;DHT22;32625;51.080;16.970;2023-05-07T06:17:17;9.20;99.90
46890;DHT22;32625;51.080;16.970;2023-05-07T06:19:49;9.30;99.90
46890;DHT22;32625;51.080;16.970;2023-05-07T06:22:18;9.40;99.90
46890;DHT22;32625;51.080;16.970;2023-05-07T06:24:45;9.40;99.90
46890;DHT22;32625;51.080;16.970;2023-05-07T06:27:13;9.40;99.90
46890;DHT22;32625;51.080;16.970;2023-05-07T06:29:40;9.40;99.90
46890;DHT22;32625;51.080;16.970;2023-05-07T06:32:13;9.30;99.90
46890;DHT22;32625;51.080;16.970;2023-05-07T06:34:43;9.30;99.90
46890;DHT22;32625;51.080;16.970;2023-05-07T06:37:10;9.30;99.90
46890;DHT22;32625;51.080;16.970;2023-05-07T06:39:57;9.20;99.90
46890;DHT22;32625;51.080;16.970;2023-05-07T06:42:36;9.30;99.90
46890;DHT22;32625;51.080;16.970;2023-05-07T06:45:24;9.30;99.90
46890;DHT22;32625;51.080;16.970;2023-05-07T06:47:54;9.30;99.90
46890;DHT22;32625;51.080;16.970;2023-05-07T06:50:22;9.20;99.90
46890;DHT22;32625;51.080;16.970;2023-05-07T06:52:52;9.20;99.90
46890;DHT22;32625;51.080;16.970;2023-05-07T06:55:19;9.20;99.90
46890;DHT22;32625;51.080;16.970;2023-05-07T06:57:46;9.20;99.90
46890;DHT22;32625;51.080;16.970;2023-05-07T07:00:15;9.30;99.90
46890;DHT22;32625;51.080;16.970;2023-05-07T07:02:48;9.40;99.90
46890;DHT22;32625;51.080;16.970;2023-05-07T07:05:17;9.30;99.90
46890;DHT22;32625;51.080;16.970;2023-05-07T07:07:44;9.20;99.90
46890;DHT22;32625;51.080;16.970;2023-05-07T07:10:20;9.10;99.90
46890;DHT22;32625;51.080;16.970;2023-05-07T07:12:50;9.10;99.90
46890;DHT22;32625;51.080;16.970;2023-05-07T07:15:17;9.10;99.90
46890;DHT22;32625;51.080;16.970;2023-05-07T07:17:44;9.10;99.90
46890;DHT22;32625;51.080;16.970;2023-05-07T07:20:12;9.10;99.90
46890;DHT22;32625;51.080;16.970;2023-05-07T07:22:40;9.10;99.90
46890;DHT22;32625;51.080;16.970;2023-05-07T07:25:08;9.10;99.90
46890;DHT22;32625;51.080;16.970;2023-05-07T07:27:37;9.20;99.90
46890;DHT22;32625;51.080;16.970;2023-05-07T07:30:07;9.20;99.90
46890;DHT22;32625;51.080;16.970;2023-05-07T07:32:38;9.20;99.90
46890;DHT22;32625;51.080;16.970;2023-05-07T07:35:06;9.20;99.90
46890;DHT22;32625;51.080;16.970;2023-05-07T07:37:34;9.30;99.90
46890;DHT22;32625;51.080;16.970;2023-05-07T07:40:01;9.30;99.90
46890;DHT22;32625;51.080;16.970;2023-05-07T07:42:32;9.40;99.90
46890;DHT22;32625;51.080;16.970;2023-05-07T07:45:00;9.50;99.90
46890;DHT22;32625;51.080;16.970;2023-05-07T07:47:31;9.60;99.90
46890;DHT22;32625;51.080;16.970;2023-05-07T07:49:58;9.60;99.90
46890;DHT22;32625;51.080;16.970;2023-05-07T07:52:28;9.60;99.90
46890;DHT22;32625;51.080;16.970;2023-05-07T07:54:56;9.70;99.90
46890;DHT22;32625;51.080;16.970;2023-05-07T07:57:23;9.70;99.90
46890;DHT22;32625;51.080;16.970;2023-05-07T07:59:50;9.70;99.90
46890;DHT22;32625;51.080;16.970;2023-05-07T08:02:19;9.70;99.90
46890;DHT22;32625;51.080;16.970;2023-05-07T08:04:48;9.70;99.90
46890;DHT22;32625;51.080;16.970;2023-05-07T08:07:15;9.70;99.90
46890;DHT22;32625;51.080;16.970;2023-05-07T08:09:47;9.60;99.90
46890;DHT22;32625;51.080;16.970;2023-05-07T08:12:17;9.60;99.90
46890;DHT22;32625;51.080;16.970;2023-05-07T08:14:44;9.60;99.90
46890;DHT22;32625;51.080;16.970;2023-05-07T08:17:11;9.60;99.90
46890;DHT22;32625;51.080;16.970;2023-05-07T08:19:39;9.50;99.90
46890;DHT22;32625;51.080;16.970;2023-05-07T08:22:10;9.50;99.90
46890;DHT22;32625;51.080;16.970;2023-05-07T08:24:38;9.40;99.90
46890;DHT22;32625;51.080;16.970;2023-05-07T08:27:05;9.30;99.90
46890;DHT22;32625;51.080;16.970;2023-05-07T08:29:33;9.30;99.90
46890;DHT22;32625;51.080;16.970;2023-05-07T08:32:00;9.30;99.90
46890;DHT22;32625;51.080;16.970;2023-05-07T08:34:27;9.30;99.90
46890;DHT22;32625;51.080;16.970;2023-05-07T08:36:56;9.40;99.90
46890;DHT22;32625;51.080;16.970;2023-05-07T08:39:24;9.30;99.90
46890;DHT22;32625;51.080;16.970;2023-05-07T08:41:55;9.30;99.90
46890;DHT22;32625;51.080;16.970;2023-05-07T08:44:26;9.30;99.90
46890;DHT22;32625;51.080;16.970;2023-05-07T08:46:56;9.30;99.90
46890;DHT22;32625;51.080;16.970;2023-05-07T08:49:26;9.40;99.90
46890;DHT22;32625;51.080;16.970;2023-05-07T08:51:54;9.30;99.90
46890;DHT22;32625;51.080;16.970;2023-05-07T08:54:25;9.30;99.90
46890;DHT22;32625;51.080;16.970;2023-05-07T08:56:53;9.30;99.90
46890;DHT22;32625;51.080;16.970;2023-05-07T08:59:21;9.40;99.90
46890;DHT22;32625;51.080;16.970;2023-05-07T09:01:48;9.40;99.90
46890;DHT22;32625;51.080;16.970;2023-05-07T09:04:16;9.40;99.90
46890;DHT22;32625;51.080;16.970;2023-05-07T09:06:44;9.40;99.90
46890;DHT22;32625;51.080;16.970;2023-05-07T09:09:17;9.40;99.90
46890;DHT22;32625;51.080;16.970;2023-05-07T09:11:48;9.40;99.90
46890;DHT22;32625;51.080;16.970;2023-05-07T09:14:21;9.40;99.90
46890;DHT22;32625;51.080;16.970;2023-05-07T09:16:49;9.40;99.90
46890;DHT22;32625;51.080;16.970;2023-05-07T09:19:26;9.40;99.90
46890;DHT22;32625;51.080;16.970;2023-05-07T09:22:02;9.30;99.90
46890;DHT22;32625;51.080;16.970;2023-05-07T09:24:37;9.30;99.90
46890;DHT22;32625;51.080;16.970;2023-05-07T09:27:07;9.40;99.90
46890;DHT22;32625;51.080;16.970;2023-05-07T09:29:37;9.40;99.90
46890;DHT22;32625;51.080;16.970;2023-05-07T09:32:06;9.50;99.90
46890;DHT22;32625;51.080;16.970;2023-05-07T09:34:34;9.60;99.90
46890;DHT22;32625;51.080;16.970;2023-05-07T09:37:03;9.60;99.90
46890;DHT22;32625;51.080;16.970;2023-05-07T09:39:48;9.70;99.90
46890;DHT22;32625;51.080;16.970;2023-05-07T09:42:24;9.80;99.90
46890;DHT22;32625;51.080;16.970;2023-05-07T09:44:52;9.80;99.90
46890;DHT22;32625;51.080;16.970;2023-05-07T09:47:24;9.80;99.90
46890;DHT22;32625;51.080;16.970;2023-05-07T09:49:56;9.80;99.90
46890;DHT22;32625;51.080;16.970;2023-05-07T09:52:26;9.80;99.90
46890;DHT22;32625;51.080;16.970;2023-05-07T09:55:02;9.80;99.90
46890;DHT22;32625;51.080;16.970;2023-05-07T09:57:33;9.80;99.90
46890;DHT22;32625;51.080;16.970;2023-05-07T10:00:04;9.70;99.90
46890;DHT22;32625;51.080;16.970;2023-05-07T10:02:47;9.70;99.90
46890;DHT22;32625;51.080;16.970;2023-05-07T10:05:19;9.70;99.90
46890;DHT22;32625;51.080;16.970;2023-05-07T10:07:52;9.90;99.90
46890;DHT22;32625;51.080;16.970;2023-05-07T10:10:22;10.10;99.90
46890;DHT22;32625;51.080;16.970;2023-05-07T10:12:50;10.20;99.90
46890;DHT22;32625;51.080;16.970;2023-05-07T10:15:26;10.40;99.90
46890;DHT22;32625;51.080;16.970;2023-05-07T10:17:56;10.70;99.90
46890;DHT22;32625;51.080;16.970;2023-05-07T10:20:26;10.90;99.90
46890;DHT22;32625;51.080;16.970;2023-05-07T10:22:56;10.90;99.90
46890;DHT22;32625;51.080;16.970;2023-05-07T10:25:32;10.90;99.90
46890;DHT22;32625;51.080;16.970;2023-05-07T10:28:08;10.80;99.90
46890;DHT22;32625;51.080;16.970;2023-05-07T10:33:47;10.60;99.90
46890;DHT22;32625;51.080;16.970;2023-05-07T10:36:18;10.70;99.90
46890;DHT22;32625;51.080;16.970;2023-05-07T10:38:46;10.70;99.90
46890;DHT22;32625;51.080;16.970;2023-05-07T10:41:14;10.70;99.90
46890;DHT22;32625;51.080;16.970;2023-05-07T10:43:45;10.90;99.90
46890;DHT22;32625;51.080;16.970;2023-05-07T10:46:22;10.90;99.90
46890;DHT22;32625;51.080;16.970;2023-05-07T10:49:10;10.80;99.90
46890;DHT22;32625;51.080;16.970;2023-05-07T10:52:22;10.80;99.90
46890;DHT22;32625;51.080;16.970;2023-05-07T10:55:19;10.70;99.90
46890;DHT22;32625;51.080;16.970;2023-05-07T10:58:27;10.60;99.90
46890;DHT22;32625;51.080;16.970;2023-05-07T11:01:07;10.50;99.90
46890;DHT22;32625;51.080;16.970;2023-05-07T11:04:14;10.50;99.90
46890;DHT22;32625;51.080;16.970;2023-05-07T11:07:28;10.60;99.90
46890;DHT22;32625;51.080;16.970;2023-05-07T11:10:02;10.50;99.90
46890;DHT22;32625;51.080;16.970;2023-05-07T11:15:36;10.60;99.90
46890;DHT22;32625;51.080;16.970;2023-05-07T11:18:11;10.60;99.90
46890;DHT22;32625;51.080;16.970;2023-05-07T11:20:59;10.60;99.90
46890;DHT22;32625;51.080;16.970;2023-05-07T11:26:26;10.80;99.90
46890;DHT22;32625;51.080;16.970;2023-05-07T11:28:54;10.80;99.90
46890;DHT22;32625;51.080;16.970;2023-05-07T11:31:26;11.00;99.90
46890;DHT22;32625;51.080;16.970;2023-05-07T11:33:55;11.20;99.90
46890;DHT22;32625;51.080;16.970;2023-05-07T11:36:24;11.20;99.90
46890;DHT22;32625;51.080;16.970;2023-05-07T11:38:54;11.20;99.90
46890;DHT22;32625;51.080;16.970;2023-05-07T11:41:22;11.20;99.90
46890;DHT22;32625;51.080;16.970;2023-05-07T11:43:59;11.00;99.90
46890;DHT22;32625;51.080;16.970;2023-05-07T11:46:28;10.90;99.90
46890;DHT22;32625;51.080;16.970;2023-05-07T11:48:56;10.70;99.90
46890;DHT22;32625;51.080;16.970;2023-05-07T11:51:24;10.60;99.90
46890;DHT22;32625;51.080;16.970;2023-05-07T11:53:53;10.60;99.90
46890;DHT22;32625;51.080;16.970;2023-05-07T11:56:20;10.70;99.90
46890;DHT22;32625;51.080;16.970;2023-05-07T11:58:48;10.80;99.90
46890;DHT22;32625;51.080;16.970;2023-05-07T12:01:15;10.90;99.90
46890;DHT22;32625;51.080;16.970;2023-05-07T12:03:44;11.00;99.90
46890;DHT22;32625;51.080;16.970;2023-05-07T12:06:16;11.10;99.90
46890;DHT22;32625;51.080;16.970;2023-05-07T12:08:44;11.10;99.90
46890;DHT22;32625;51.080;16.970;2023-05-07T12:11:16;11.00;99.90
46890;DHT22;32625;51.080;16.970;2023-05-07T12:13:48;10.90;99.90
46890;DHT22;32625;51.080;16.970;2023-05-07T12:16:15;10.90;99.90
46890;DHT22;32625;51.080;16.970;2023-05-07T12:18:44;10.90;99.90
46890;DHT22;32625;51.080;16.970;2023-05-07T12:21:11;11.00;99.90
46890;DHT22;32625;51.080;16.970;2023-05-07T12:23:40;11.00;99.90
46890;DHT22;32625;51.080;16.970;2023-05-07T12:26:08;11.00;99.90
46890;DHT22;32625;51.080;16.970;2023-05-07T12:28:38;11.00;99.90
46890;DHT22;32625;51.080;16.970;2023-05-07T12:31:06;11.10;99.90
46890;DHT22;32625;51.080;16.970;2023-05-07T12:33:34;11.30;99.90
46890;DHT22;32625;51.080;16.970;2023-05-07T12:36:05;11.40;99.90
46890;DHT22;32625;51.080;16.970;2023-05-07T12:38:37;11.30;99.90
46890;DHT22;32625;51.080;16.970;2023-05-07T12:41:06;11.30;99.90
46890;DHT22;32625;51.080;16.970;2023-05-07T12:43:34;11.20;99.90
46890;DHT22;32625;51.080;16.970;2023-05-07T12:46:04;11.10;99.90
46890;DHT22;32625;51.080;16.970;2023-05-07T12:48:31;11.10;99.90
46890;DHT22;32625;51.080;16.970;2023-05-07T12:51:02;11.00;99.90
46890;DHT22;32625;51.080;16.970;2023-05-07T12:53:29;10.90;99.90
46890;DHT22;32625;51.080;16.970;2023-05-07T12:55:59;11.00;99.90
46890;DHT22;32625;51.080;16.970;2023-05-07T12:58:29;11.00;99.90
46890;DHT22;32625;51.080;16.970;2023-05-07T13:00:58;11.00;99.90
46890;DHT22;32625;51.080;16.970;2023-05-07T13:03:27;10.90;99.90
46890;DHT22;32625;51.080;16.970;2023-05-07T13:06:00;10.90;99.90
46890;DHT22;32625;51.080;16.970;2023-05-07T13:08:33;10.90;99.90
46890;DHT22;32625;51.080;16.970;2023-05-07T13:11:01;10.90;99.90
46890;DHT22;32625;51.080;16.970;2023-05-07T13:13:31;11.00;99.90
46890;DHT22;32625;51.080;16.970;2023-05-07T13:15:59;11.20;99.90
46890;DHT22;32625;51.080;16.970;2023-05-07T13:18:28;11.20;99.90
46890;DHT22;32625;51.080;16.970;2023-05-07T13:20:56;11.20;99.90
46890;DHT22;32625;51.080;16.970;2023-05-07T13:23:25;11.20;99.90
46890;DHT22;32625;51.080;16.970;2023-05-07T13:25:52;11.10;99.90
46890;DHT22;32625;51.080;16.970;2023-05-07T13:28:20;11.00;99.90
46890;DHT22;32625;51.080;16.970;2023-05-07T13:30:48;11.00;99.90
46890;DHT22;32625;51.080;16.970;2023-05-07T13:33:15;11.00;99.90
46890;DHT22;32625;51.080;16.970;2023-05-07T13:35:43;11.10;99.90
46890;DHT22;32625;51.080;16.970;2023-05-07T13:38:10;11.10;99.90
46890;DHT22;32625;51.080;16.970;2023-05-07T13:40:37;11.10;99.90
46890;DHT22;32625;51.080;16.970;2023-05-07T13:43:05;10.90;99.90
46890;DHT22;32625;51.080;16.970;2023-05-07T13:45:33;10.80;99.90
46890;DHT22;32625;51.080;16.970;2023-05-07T13:48:01;10.80;99.90
46890;DHT22;32625;51.080;16.970;2023-05-07T13:50:28;10.80;99.90
46890;DHT22;32625;51.080;16.970;2023-05-07T13:52:57;10.80;99.90
46890;DHT22;32625;51.080;16.970;2023-05-07T13:55:24;10.90;99.90
46890;DHT22;32625;51.080;16.970;2023-05-07T13:57:57;11.00;99.90
46890;DHT22;32625;51.080;16.970;2023-05-07T14:00:26;11.00;99.90
46890;DHT22;32625;51.080;16.970;2023-05-07T14:02:54;11.00;99.90
46890;DHT22;32625;51.080;16.970;2023-05-07T14:05:22;11.00;99.90
46890;DHT22;32625;51.080;16.970;2023-05-07T14:07:54;10.90;99.90
46890;DHT22;32625;51.080;16.970;2023-05-07T14:10:24;10.80;99.90
46890;DHT22;32625;51.080;16.970;2023-05-07T14:12:51;10.70;99.90
46890;DHT22;32625;51.080;16.970;2023-05-07T14:15:19;10.60;99.90
46890;DHT22;32625;51.080;16.970;2023-05-07T14:17:49;10.60;99.90
46890;DHT22;32625;51.080;16.970;2023-05-07T14:20:16;10.60;99.90
46890;DHT22;32625;51.080;16.970;2023-05-07T14:22:44;10.50;99.90
46890;DHT22;32625;51.080;16.970;2023-05-07T14:28:57;10.50;99.90
46890;DHT22;32625;51.080;16.970;2023-05-07T14:43:37;10.50;99.90
46890;DHT22;32625;51.080;16.970;2023-05-07T14:46:04;10.60;99.90
46890;DHT22;32625;51.080;16.970;2023-05-07T14:52:59;10.50;99.90
46890;DHT22;32625;51.080;16.970;2023-05-07T14:55:26;10.50;99.90
46890;DHT22;32625;51.080;16.970;2023-05-07T14:57:55;10.50;99.90
46890;DHT22;32625;51.080;16.970;2023-05-07T15:00:22;10.50;99.90
46890;DHT22;32625;51.080;16.970;2023-05-07T15:02:49;10.50;99.90
46890;DHT22;32625;51.080;16.970;2023-05-07T15:05:17;10.50;99.90
46890;DHT22;32625;51.080;16.970;2023-05-07T15:07:46;10.50;99.90
46890;DHT22;32625;51.080;16.970;2023-05-07T15:10:13;10.50;99.90
46890;DHT22;32625;51.080;16.970;2023-05-07T15:30:24;10.50;99.90
46890;DHT22;32625;51.080;16.970;2023-05-07T15:32:52;10.50;99.90
46890;DHT22;32625;51.080;16.970;2023-05-07T15:44:20;10.50;99.90
46890;DHT22;32625;51.080;16.970;2023-05-07T15:46:48;10.50;99.90
46890;DHT22;32625;51.080;16.970;2023-05-07T15:49:15;10.50;99.90
46890;DHT22;32625;51.080;16.970;2023-05-07T16:00:48;10.40;99.90
46890;DHT22;32625;51.080;16.970;2023-05-07T16:03:15;10.40;99.90
46890;DHT22;32625;51.080;16.970;2023-05-07T16:05:44;10.40;99.90
46890;DHT22;32625;51.080;16.970;2023-05-07T16:11:27;10.40;99.90
46890;DHT22;32625;51.080;16.970;2023-05-07T16:13:59;10.40;99.90
46890;DHT22;32625;51.080;16.970;2023-05-07T16:20:38;10.40;99.90
46890;DHT22;32625;51.080;16.970;2023-05-07T16:23:05;10.40;99.90
46890;DHT22;32625;51.080;16.970;2023-05-07T16:34:31;10.40;99.90
46890;DHT22;32625;51.080;16.970;2023-05-07T16:36:58;10.40;99.90
46890;DHT22;32625;51.080;16.970;2023-05-07T16:42:35;10.40;99.90
46890;DHT22;32625;51.080;16.970;2023-05-07T16:45:03;10.40;99.90
46890;DHT22;32625;51.080;16.970;2023-05-07T17:08:40;10.40;99.90
46890;DHT22;32625;51.080;16.970;2023-05-07T17:11:27;10.30;99.90
46890;DHT22;32625;51.080;16.970;2023-05-07T17:13:57;10.30;99.90
46890;DHT22;32625;51.080;16.970;2023-05-07T17:16:24;10.30;99.90
46890;DHT22;32625;51.080;16.970;2023-05-07T17:36:20;10.30;99.90
46890;DHT22;32625;51.080;16.970;2023-05-07T17:38:47;10.20;99.90
46890;DHT22;32625;51.080;16.970;2023-05-07T17:41:26;10.20;99.90
46890;DHT22;32625;51.080;16.970;2023-05-07T17:43:53;10.20;99.90
46890;DHT22;32625;51.080;16.970;2023-05-07T17:54:20;10.20;99.90